createdAt,value
2023-05-10T00:01:08.668Z,56.87
2023-05-10T00:03:35.533Z,57.35
2023-05-10T00:06:02.471Z,56.88
2023-05-10T00:08:29.227Z,57.06
2023-05-10T00:10:57.480Z,57.03
2023-05-10T00:13:24.458Z,57.09
2023-05-10T00:15:52.229Z,57.07
2023-05-10T00:18:18.995Z,56.99
2023-05-10T00:20:47.246Z,57.03
2023-05-10T00:23:13.990Z,57.18
2023-05-10T00:25:40.702Z,57.04
2023-05-10T00:28:07.653Z,56.97
2023-05-10T00:30:34.413Z,57.23
2023-05-10T00:33:01.597Z,57.17
2023-05-10T00:35:28.500Z,56.91
2023-05-10T00:37:55.220Z,56.94
2023-05-10T00:40:22.182Z,57.02
2023-05-10T00:42:49.008Z,56.90
2023-05-10T00:45:16.112Z,57.19
2023-05-10T00:47:42.943Z,57.02
2023-05-10T00:50:10.638Z,56.86
2023-05-10T00:52:38.014Z,57.25
2023-05-10T00:55:05.154Z,57.05
2023-05-10T00:57:32.057Z,57.04
2023-05-10T00:59:59.113Z,57.23
2023-05-10T01:02:26.125Z,57.08
2023-05-10T01:04:53.267Z,57.16
2023-05-10T01:07:20.080Z,57.30
2023-05-10T01:09:46.797Z,57.26
2023-05-10T01:12:13.757Z,57.00
2023-05-10T01:14:40.657Z,57.35
2023-05-10T01:17:07.561Z,57.59
2023-05-10T01:19:36.256Z,57.37
2023-05-10T01:22:12.889Z,57.61
2023-05-10T01:25:18.078Z,57.48
2023-05-10T01:28:06.179Z,57.37
2023-05-10T01:30:48.219Z,57.24
2023-05-10T01:33:37.875Z,57.54
2023-05-10T01:36:16.251Z,57.17
2023-05-10T01:38:43.632Z,57.41
2023-05-10T01:41:20.121Z,57.21
2023-05-10T01:44:04.718Z,57.32
2023-05-10T01:46:38.159Z,57.33
2023-05-10T01:49:09.910Z,57.27
2023-05-10T01:51:47.484Z,57.34
2023-05-10T01:54:14.666Z,57.24
2023-05-10T01:56:42.341Z,57.59
2023-05-10T01:59:18.029Z,57.47
2023-05-10T02:01:44.733Z,57.48
2023-05-10T02:04:11.945Z,57.40
2023-05-10T02:06:39.659Z,57.35
2023-05-10T02:09:06.399Z,57.47
2023-05-10T02:11:33.164Z,57.43
2023-05-10T02:14:00.245Z,57.51
2023-05-10T02:16:27.647Z,57.49
2023-05-10T02:18:54.413Z,57.40
2023-05-10T02:21:21.981Z,57.25
2023-05-10T02:23:49.752Z,57.70
2023-05-10T02:26:16.627Z,57.37
2023-05-10T02:28:44.135Z,57.34
2023-05-10T02:31:11.649Z,57.47
2023-05-10T02:33:42.004Z,57.52
2023-05-10T02:36:09.226Z,57.49
2023-05-10T02:38:36.019Z,57.62
2023-05-10T02:41:03.071Z,57.55
2023-05-10T02:43:29.931Z,57.12
2023-05-10T02:45:56.719Z,57.38
2023-05-10T02:48:23.569Z,57.22
2023-05-10T02:50:52.640Z,57.20
2023-05-10T02:53:22.592Z,57.53
2023-05-10T02:55:51.889Z,57.63
2023-05-10T02:58:20.552Z,57.46
2023-05-10T03:00:47.645Z,57.44
2023-05-10T03:03:14.376Z,57.12
2023-05-10T03:05:41.168Z,57.51
2023-05-10T03:08:07.947Z,57.31
2023-05-10T03:10:35.179Z,57.34
2023-05-10T03:13:31.851Z,57.38
2023-05-10T03:16:15.883Z,57.70
2023-05-10T03:18:49.487Z,57.38
2023-05-10T03:21:16.340Z,57.55
2023-05-10T03:23:53.540Z,57.36
2023-05-10T03:26:26.792Z,57.21
2023-05-10T03:28:54.178Z,57.33
2023-05-10T03:31:20.946Z,57.40
2023-05-10T03:33:51.114Z,57.49
2023-05-10T03:36:18.262Z,57.47
2023-05-10T03:38:44.995Z,57.46
2023-05-10T03:41:11.799Z,57.10
2023-05-10T03:43:38.590Z,57.26
2023-05-10T03:46:05.911Z,57.29
2023-05-10T03:48:33.297Z,57.41
2023-05-10T03:51:00.261Z,57.48
2023-05-10T03:53:28.424Z,57.03
2023-05-10T03:55:55.196Z,57.25
2023-05-10T03:58:23.080Z,57.22
2023-05-10T04:00:49.882Z,57.34
2023-05-10T04:03:16.849Z,57.36
2023-05-10T04:05:43.829Z,57.43
2023-05-10T04:08:10.740Z,57.43
2023-05-10T04:10:37.462Z,57.33
2023-05-10T04:13:04.353Z,57.33
2023-05-10T04:15:31.095Z,57.33
2023-05-10T04:17:57.849Z,57.45
2023-05-10T04:20:24.771Z,57.12
2023-05-10T04:22:51.594Z,57.55
2023-05-10T04:25:18.333Z,57.35
2023-05-10T04:27:45.302Z,57.29
2023-05-10T04:30:13.542Z,57.00
2023-05-10T04:32:40.421Z,57.28
2023-05-10T04:35:07.599Z,57.56
2023-05-10T04:37:34.353Z,57.41
2023-05-10T04:40:01.325Z,57.49
2023-05-10T04:42:28.167Z,57.10
2023-05-10T04:44:55.082Z,57.38
2023-05-10T04:47:21.857Z,57.27
2023-05-10T04:49:48.792Z,57.52
2023-05-10T04:52:17.343Z,57.49
2023-05-10T04:54:44.155Z,57.67
2023-05-10T04:57:11.217Z,57.17
2023-05-10T04:59:38.792Z,57.19
2023-05-10T05:02:06.221Z,57.21
2023-05-10T05:04:33.296Z,57.38
2023-05-10T05:07:00.207Z,57.24
2023-05-10T05:09:26.927Z,57.38
2023-05-10T05:11:53.827Z,57.32
2023-05-10T05:14:22.057Z,57.33
2023-05-10T05:16:48.801Z,57.58
2023-05-10T05:19:15.623Z,57.11
2023-05-10T05:21:42.414Z,57.15
2023-05-10T05:24:09.365Z,57.21
2023-05-10T05:26:36.181Z,57.25
2023-05-10T05:29:03.045Z,57.41
2023-05-10T05:31:30.165Z,57.21
2023-05-10T05:33:57.230Z,57.45
2023-05-10T05:36:24.017Z,57.23
2023-05-10T05:38:50.815Z,57.26
2023-05-10T05:41:17.696Z,57.15
2023-05-10T05:43:44.552Z,57.31
2023-05-10T05:46:11.458Z,57.34
2023-05-10T05:48:38.336Z,57.47
2023-05-10T05:51:07.190Z,57.35
2023-05-10T05:53:34.181Z,57.69
2023-05-10T05:56:01.116Z,57.69
2023-05-10T05:58:28.125Z,57.64
2023-05-10T06:00:55.180Z,57.84
2023-05-10T06:03:22.284Z,57.85
2023-05-10T06:05:49.471Z,57.69
2023-05-10T06:08:16.254Z,57.84
2023-05-10T06:10:43.188Z,57.86
2023-05-10T06:13:10.013Z,57.90
2023-05-10T06:15:36.972Z,57.76
2023-05-10T06:18:04.036Z,57.93
2023-05-10T06:20:32.625Z,58.38
2023-05-10T06:22:59.554Z,57.75
2023-05-10T06:25:26.508Z,57.45
2023-05-10T06:27:58.209Z,57.21
2023-05-10T06:30:28.621Z,57.04
2023-05-10T06:32:56.001Z,56.46
2023-05-10T06:35:22.900Z,56.63
2023-05-10T06:37:50.372Z,56.51
2023-05-10T06:40:17.354Z,57.38
2023-05-10T06:42:46.048Z,57.70
2023-05-10T06:45:13.259Z,58.39
2023-05-10T06:47:40.120Z,58.68
2023-05-10T06:50:08.538Z,58.66
2023-05-10T06:52:35.521Z,58.79
2023-05-10T06:55:02.973Z,58.55
2023-05-10T06:57:31.873Z,58.49
2023-05-10T07:00:00.574Z,58.09
2023-05-10T07:02:27.718Z,58.05
2023-05-10T07:04:55.332Z,57.63
2023-05-10T07:07:22.407Z,57.55
2023-05-10T07:09:50.048Z,57.26
2023-05-10T07:12:16.868Z,56.94
2023-05-10T07:14:43.806Z,56.76
2023-05-10T07:17:11.084Z,56.47
2023-05-10T07:19:37.964Z,56.36
2023-05-10T07:22:04.942Z,56.13
2023-05-10T07:24:32.397Z,55.84
2023-05-10T07:26:59.208Z,55.46
2023-05-10T07:29:26.207Z,55.15
2023-05-10T07:31:53.020Z,54.92
2023-05-10T07:34:19.869Z,54.62
2023-05-10T07:36:46.839Z,54.38
2023-05-10T07:39:18.593Z,53.88
2023-05-10T07:41:53.179Z,53.46
2023-05-10T07:44:21.422Z,53.01
2023-05-10T07:46:48.777Z,52.75
2023-05-10T07:49:15.786Z,52.53
2023-05-10T07:51:43.619Z,52.25
2023-05-10T07:54:10.495Z,52.21
2023-05-10T07:56:37.314Z,51.89
2023-05-10T07:59:09.257Z,51.74
2023-05-10T08:01:37.938Z,51.49
2023-05-10T08:04:04.940Z,51.13
2023-05-10T08:06:31.805Z,50.81
2023-05-10T08:08:58.692Z,50.56
2023-05-10T08:11:25.999Z,49.70
2023-05-10T08:13:54.002Z,49.36
2023-05-10T08:16:21.113Z,49.15
2023-05-10T08:18:48.318Z,49.09
2023-05-10T08:21:15.932Z,48.77
2023-05-10T08:23:44.872Z,48.86
2023-05-10T08:26:11.972Z,48.66
2023-05-10T08:28:38.838Z,48.41
2023-05-10T08:31:06.127Z,48.30
2023-05-10T08:33:33.004Z,48.02
2023-05-10T08:35:59.864Z,47.72
2023-05-10T08:38:27.079Z,47.14
2023-05-10T08:40:57.584Z,46.51
2023-05-10T08:43:24.621Z,46.26
2023-05-10T08:45:51.369Z,46.31
2023-05-10T08:48:18.163Z,45.95
2023-05-10T08:50:45.595Z,45.97
2023-05-10T08:53:14.026Z,45.70
2023-05-10T08:55:43.348Z,44.79
2023-05-10T08:58:10.205Z,46.07
2023-05-10T09:00:38.260Z,45.35
2023-05-10T09:03:05.974Z,44.33
2023-05-10T09:05:34.227Z,44.24
2023-05-10T09:08:03.779Z,43.60
2023-05-10T09:10:30.865Z,43.63
2023-05-10T09:12:59.402Z,43.39
2023-05-10T09:15:27.630Z,43.05
2023-05-10T09:17:54.537Z,42.68
2023-05-10T09:20:21.781Z,42.24
2023-05-10T09:22:48.590Z,41.90
2023-05-10T09:25:16.589Z,42.24
2023-05-10T09:27:47.526Z,41.37
2023-05-10T09:30:32.452Z,41.61
2023-05-10T09:33:00.225Z,41.59
2023-05-10T09:35:29.813Z,40.82
2023-05-10T09:37:58.365Z,41.04
2023-05-10T09:40:26.495Z,40.70
2023-05-10T09:43:00.908Z,40.34
2023-05-10T09:45:37.749Z,40.05
2023-05-10T09:48:06.049Z,39.70
2023-05-10T09:50:32.976Z,39.87
2023-05-10T09:53:01.487Z,39.32
2023-05-10T09:55:43.036Z,38.98
2023-05-10T09:58:12.854Z,38.83
2023-05-10T10:00:43.953Z,38.44
2023-05-10T10:03:16.399Z,38.59
2023-05-10T10:05:46.540Z,38.54
2023-05-10T10:08:13.804Z,38.20
2023-05-10T10:10:46.497Z,38.08
2023-05-10T10:13:13.373Z,38.28
2023-05-10T10:15:40.173Z,37.62
2023-05-10T10:18:07.125Z,37.83
2023-05-10T10:20:34.554Z,37.62
2023-05-10T10:23:01.432Z,37.09
2023-05-10T10:25:28.345Z,36.83
2023-05-10T10:27:57.902Z,36.53
2023-05-10T10:30:47.236Z,36.71
2023-05-10T10:33:31.219Z,36.87
2023-05-10T10:36:00.084Z,36.64
2023-05-10T10:38:26.944Z,36.51
2023-05-10T10:41:03.932Z,36.12
2023-05-10T10:43:31.464Z,36.11
2023-05-10T10:46:18.547Z,36.15
2023-05-10T10:48:50.250Z,35.73
2023-05-10T10:51:17.203Z,35.89
2023-05-10T10:53:44.134Z,35.64
2023-05-10T10:56:13.010Z,35.61
2023-05-10T10:58:40.294Z,35.48
2023-05-10T11:01:14.524Z,35.56
2023-05-10T11:03:41.591Z,35.20
2023-05-10T11:06:09.466Z,35.30
2023-05-10T11:08:44.150Z,34.92
2023-05-10T11:11:11.377Z,35.06
2023-05-10T11:13:47.754Z,34.70
2023-05-10T11:16:19.045Z,34.98
2023-05-10T11:19:05.937Z,34.94
2023-05-10T11:21:33.672Z,34.87
2023-05-10T11:24:01.270Z,34.91
2023-05-10T11:26:36.349Z,34.42
2023-05-10T11:29:04.226Z,34.56
2023-05-10T11:31:31.129Z,34.65
2023-05-10T11:33:59.605Z,34.56
2023-05-10T11:36:28.164Z,34.57
2023-05-10T11:38:55.309Z,34.86
2023-05-10T11:41:23.254Z,34.46
2023-05-10T11:43:55.072Z,33.98
2023-05-10T11:46:24.008Z,33.93
2023-05-10T11:48:52.062Z,34.07
2023-05-10T11:51:25.270Z,33.56
2023-05-10T11:53:55.863Z,33.24
2023-05-10T11:56:22.985Z,33.55
2023-05-10T11:58:57.409Z,33.76
2023-05-10T12:01:27.795Z,33.54
2023-05-10T12:03:56.090Z,33.53
2023-05-10T12:06:23.269Z,32.88
2023-05-10T12:08:54.867Z,32.38
2023-05-10T12:11:22.853Z,32.27
2023-05-10T12:13:50.920Z,31.87
2023-05-10T12:16:22.527Z,31.71
2023-05-10T12:18:50.063Z,31.53
2023-05-10T12:21:16.877Z,30.87
2023-05-10T12:23:43.898Z,30.92
2023-05-10T12:26:11.389Z,31.25
2023-05-10T12:28:38.501Z,31.28
2023-05-10T12:31:06.578Z,31.46
2023-05-10T12:33:44.225Z,31.44
2023-05-10T12:36:11.775Z,31.32
2023-05-10T12:38:40.323Z,31.08
2023-05-10T12:41:11.074Z,30.77
2023-05-10T12:43:38.288Z,30.91
2023-05-10T12:46:12.481Z,30.00
2023-05-10T12:48:40.107Z,29.82
2023-05-10T12:51:09.778Z,30.79
2023-05-10T12:53:37.057Z,30.95
2023-05-10T12:56:03.984Z,30.61
2023-05-10T12:58:35.868Z,30.10
2023-05-10T13:01:03.168Z,29.18
2023-05-10T13:03:30.110Z,30.11
2023-05-10T13:05:57.027Z,30.59
2023-05-10T13:08:23.829Z,30.55
2023-05-10T13:10:50.696Z,31.19
2023-05-10T13:13:17.675Z,31.70
2023-05-10T13:15:44.459Z,32.13
2023-05-10T13:18:11.778Z,32.78
2023-05-10T13:20:38.775Z,32.74
2023-05-10T13:23:05.593Z,33.53
2023-05-10T13:25:32.536Z,33.53
2023-05-10T13:27:59.294Z,34.17
2023-05-10T13:30:26.281Z,34.10
2023-05-10T13:32:53.340Z,34.45
2023-05-10T13:35:20.178Z,34.75
2023-05-10T13:37:46.906Z,35.01
2023-05-10T13:40:14.838Z,35.56
2023-05-10T13:42:42.437Z,35.92
2023-05-10T13:45:14.226Z,35.85
2023-05-10T13:47:47.212Z,36.24
2023-05-10T13:50:13.996Z,36.51
2023-05-10T13:52:41.063Z,36.54
2023-05-10T13:55:09.283Z,36.28
2023-05-10T13:57:37.095Z,36.47
2023-05-10T14:00:04.269Z,36.85
2023-05-10T14:02:31.227Z,36.79
2023-05-10T14:04:58.090Z,37.04
2023-05-10T14:07:24.835Z,37.42
2023-05-10T14:09:51.835Z,37.42
2023-05-10T14:12:18.645Z,37.93
2023-05-10T14:14:46.406Z,37.72
2023-05-10T14:17:13.247Z,37.92
2023-05-10T14:19:40.304Z,38.21
2023-05-10T14:22:07.132Z,38.60
2023-05-10T14:24:33.956Z,38.68
2023-05-10T14:27:01.308Z,38.61
2023-05-10T14:29:28.375Z,38.85
2023-05-10T14:31:55.248Z,38.91
2023-05-10T14:34:22.119Z,39.02
2023-05-10T14:36:48.894Z,38.96
2023-05-10T14:39:15.841Z,39.34
2023-05-10T14:41:44.050Z,39.50
2023-05-10T14:44:11.190Z,39.66
2023-05-10T14:46:38.504Z,40.32
2023-05-10T14:49:05.253Z,40.45
2023-05-10T14:51:32.951Z,40.59
2023-05-10T14:53:59.953Z,40.47
2023-05-10T14:56:29.660Z,40.77
2023-05-10T14:58:56.719Z,41.00
2023-05-10T15:01:24.461Z,41.36
2023-05-10T15:03:51.945Z,41.55
2023-05-10T15:06:22.259Z,41.45
2023-05-10T15:08:49.389Z,41.86
2023-05-10T15:11:16.270Z,41.79
2023-05-10T15:13:43.178Z,42.04
2023-05-10T15:16:10.042Z,42.18
2023-05-10T15:18:36.839Z,42.43
2023-05-10T15:21:03.690Z,42.42
2023-05-10T15:23:31.318Z,42.64
2023-05-10T15:25:58.350Z,42.86
2023-05-10T15:28:25.087Z,42.70
2023-05-10T15:30:52.458Z,42.97
2023-05-10T15:33:19.287Z,43.04
2023-05-10T15:35:46.143Z,43.40
2023-05-10T15:38:12.994Z,43.47
2023-05-10T15:40:39.754Z,43.52
2023-05-10T15:43:06.877Z,43.59
2023-05-10T15:45:35.223Z,43.35
2023-05-10T15:48:04.715Z,43.44
2023-05-10T15:50:31.514Z,43.54
2023-05-10T15:52:58.321Z,44.06
2023-05-10T15:55:25.059Z,43.71
2023-05-10T15:57:51.803Z,44.22
2023-05-10T16:00:19.276Z,44.17
2023-05-10T16:02:46.521Z,44.28
2023-05-10T16:05:14.134Z,44.42
2023-05-10T16:07:42.503Z,44.45
2023-05-10T16:10:10.941Z,44.11
2023-05-10T16:12:38.329Z,44.59
2023-05-10T16:15:06.092Z,44.79
2023-05-10T16:17:32.950Z,44.90
2023-05-10T16:19:59.730Z,44.89
2023-05-10T16:22:29.822Z,44.86
2023-05-10T16:24:59.695Z,44.95
2023-05-10T16:27:28.828Z,44.72
2023-05-10T16:29:55.846Z,44.75
2023-05-10T16:32:22.661Z,44.72
2023-05-10T16:34:50.317Z,44.78
2023-05-10T16:37:19.426Z,44.73
2023-05-10T16:39:46.179Z,44.85
2023-05-10T16:42:13.123Z,44.69
2023-05-10T16:44:40.555Z,44.62
2023-05-10T16:47:07.796Z,44.67
2023-05-10T16:49:36.340Z,44.54
2023-05-10T16:52:03.544Z,44.48
2023-05-10T16:54:30.505Z,44.71
2023-05-10T16:56:57.234Z,44.55
2023-05-10T16:59:24.211Z,44.70
2023-05-10T17:01:53.386Z,44.65
2023-05-10T17:04:20.423Z,44.74
2023-05-10T17:06:47.353Z,44.78
2023-05-10T17:09:14.128Z,44.75
2023-05-10T17:11:42.072Z,44.72
2023-05-10T17:14:08.944Z,44.79
2023-05-10T17:16:35.932Z,44.77
2023-05-10T17:19:04.323Z,44.84
2023-05-10T17:21:32.523Z,44.88
2023-05-10T17:23:59.236Z,44.80
2023-05-10T17:26:27.681Z,44.88
2023-05-10T17:28:55.131Z,44.91
2023-05-10T17:31:22.018Z,44.93
2023-05-10T17:33:48.789Z,45.10
2023-05-10T17:36:15.668Z,44.98
2023-05-10T17:38:43.507Z,44.87
2023-05-10T17:41:12.608Z,45.10
2023-05-10T17:43:39.725Z,45.15
2023-05-10T17:46:08.815Z,45.34
2023-05-10T17:48:37.199Z,45.12
2023-05-10T17:51:04.591Z,45.23
2023-05-10T17:53:31.388Z,45.12
2023-05-10T17:55:59.100Z,45.10
2023-05-10T17:58:25.960Z,45.17
2023-05-10T18:00:53.024Z,45.07
2023-05-10T18:03:19.841Z,45.10
2023-05-10T18:05:47.287Z,45.15
2023-05-10T18:08:14.267Z,45.41
2023-05-10T18:10:41.696Z,45.16
2023-05-10T18:13:09.051Z,45.46
2023-05-10T18:15:35.874Z,45.46
2023-05-10T18:18:04.250Z,45.44
2023-05-10T18:20:31.952Z,45.11
2023-05-10T18:22:58.787Z,45.04
2023-05-10T18:25:25.829Z,45.37
2023-05-10T18:27:52.918Z,45.46
2023-05-10T18:30:19.836Z,45.56
2023-05-10T18:32:46.802Z,45.02
2023-05-10T18:35:13.710Z,45.42
2023-05-10T18:37:40.595Z,45.61
2023-05-10T18:40:14.241Z,45.63
2023-05-10T18:42:46.647Z,45.78
2023-05-10T18:45:14.003Z,46.05
2023-05-10T18:47:40.819Z,46.02
2023-05-10T18:50:08.272Z,46.30
2023-05-10T18:52:36.864Z,46.16
2023-05-10T18:55:03.986Z,46.38
2023-05-10T18:57:30.819Z,46.37
2023-05-10T18:59:57.689Z,46.41
2023-05-10T19:02:26.924Z,46.55
2023-05-10T19:04:54.042Z,46.48
2023-05-10T19:07:21.001Z,46.88
2023-05-10T19:09:47.911Z,47.10
2023-05-10T19:12:14.835Z,47.15
2023-05-10T19:14:41.576Z,46.88
2023-05-10T19:17:08.722Z,46.94
2023-05-10T19:19:37.784Z,47.13
2023-05-10T19:22:04.758Z,47.21
2023-05-10T19:24:31.670Z,47.27
2023-05-10T19:26:58.541Z,47.19
2023-05-10T19:29:27.607Z,47.48
2023-05-10T19:31:54.507Z,47.49
2023-05-10T19:34:21.326Z,47.75
2023-05-10T19:36:48.316Z,47.92
2023-05-10T19:39:15.316Z,47.72
2023-05-10T19:41:42.146Z,47.98
2023-05-10T19:44:10.738Z,47.93
2023-05-10T19:46:37.827Z,47.97
2023-05-10T19:49:04.675Z,47.98
2023-05-10T19:51:31.576Z,47.92
2023-05-10T19:53:58.310Z,48.20
2023-05-10T19:56:26.891Z,48.50
2023-05-10T19:58:53.804Z,48.31
2023-05-10T20:01:21.058Z,48.26
2023-05-10T20:03:48.138Z,48.67
2023-05-10T20:06:14.991Z,48.64
2023-05-10T20:08:41.716Z,48.26
2023-05-10T20:11:08.516Z,48.72
2023-05-10T20:13:35.313Z,48.38
2023-05-10T20:16:02.695Z,48.26
2023-05-10T20:18:29.443Z,48.23
2023-05-10T20:20:58.929Z,48.83
2023-05-10T20:23:26.326Z,48.37
2023-05-10T20:25:54.908Z,48.57
2023-05-10T20:28:23.201Z,48.38
2023-05-10T20:30:54.199Z,48.41
2023-05-10T20:33:21.841Z,48.62
2023-05-10T20:35:50.805Z,48.38
2023-05-10T20:38:18.345Z,48.26
2023-05-10T20:40:45.633Z,48.34
2023-05-10T20:43:12.506Z,48.68
2023-05-10T20:45:39.384Z,48.44
2023-05-10T20:48:06.359Z,48.48
2023-05-10T20:50:33.222Z,48.82
2023-05-10T20:53:01.039Z,48.80
2023-05-10T20:55:28.334Z,48.61
2023-05-10T20:57:55.248Z,48.90
2023-05-10T21:00:22.151Z,48.84
2023-05-10T21:02:49.485Z,48.98
2023-05-10T21:05:17.927Z,48.84
2023-05-10T21:07:44.716Z,48.79
2023-05-10T21:10:11.661Z,49.15
2023-05-10T21:12:38.867Z,48.93
2023-05-10T21:15:06.193Z,49.02
2023-05-10T21:17:32.946Z,49.26
2023-05-10T21:19:59.750Z,49.13
2023-05-10T21:22:26.984Z,49.30
2023-05-10T21:24:53.701Z,49.22
2023-05-10T21:27:20.882Z,49.47
2023-05-10T21:29:47.749Z,49.43
2023-05-10T21:32:15.053Z,49.24
2023-05-10T21:34:42.244Z,49.54
2023-05-10T21:37:09.234Z,49.65
2023-05-10T21:39:36.138Z,49.32
2023-05-10T21:42:03.903Z,49.46
2023-05-10T21:44:31.882Z,49.67
2023-05-10T21:46:58.906Z,49.58
2023-05-10T21:49:25.931Z,49.72
2023-05-10T21:51:52.661Z,49.89
2023-05-10T21:54:19.563Z,49.91
2023-05-10T21:56:46.526Z,49.96
2023-05-10T21:59:13.264Z,50.16
2023-05-10T22:01:40.209Z,50.12
2023-05-10T22:04:07.106Z,50.15
2023-05-10T22:06:33.977Z,49.75
2023-05-10T22:09:00.761Z,49.93
2023-05-10T22:11:27.665Z,49.88
2023-05-10T22:13:54.494Z,50.02
2023-05-10T22:16:21.249Z,49.93
2023-05-10T22:18:48.305Z,50.15
2023-05-10T22:21:15.111Z,50.38
2023-05-10T22:23:41.828Z,50.22
2023-05-10T22:26:08.767Z,50.62
2023-05-10T22:28:35.656Z,50.48
2023-05-10T22:31:02.422Z,50.46
2023-05-10T22:33:29.894Z,50.18
2023-05-10T22:35:56.616Z,50.43
2023-05-10T22:38:23.348Z,50.73
2023-05-10T22:40:50.366Z,50.70
2023-05-10T22:43:17.860Z,50.46
2023-05-10T22:45:44.569Z,50.45
2023-05-10T22:48:11.489Z,50.45
2023-05-10T22:50:38.349Z,50.62
2023-05-10T22:53:05.106Z,50.52
2023-05-10T22:55:32.113Z,50.54
2023-05-10T22:57:58.945Z,50.84
2023-05-10T23:00:25.797Z,50.92
2023-05-10T23:02:53.105Z,50.98
2023-05-10T23:05:20.114Z,50.86
2023-05-10T23:07:55.370Z,50.79
2023-05-10T23:10:22.383Z,50.94
2023-05-10T23:12:49.220Z,50.60
2023-05-10T23:15:16.289Z,50.63
2023-05-10T23:17:43.079Z,50.69
2023-05-10T23:20:10.474Z,50.88
2023-05-10T23:22:37.643Z,50.66
2023-05-10T23:25:04.740Z,50.76
2023-05-10T23:27:31.605Z,50.87
2023-05-10T23:29:58.859Z,50.88
2023-05-10T23:32:25.768Z,50.68
2023-05-10T23:34:52.699Z,50.81
2023-05-10T23:37:19.648Z,50.68
2023-05-10T23:39:46.590Z,50.99
2023-05-10T23:42:13.461Z,50.57
2023-05-10T23:44:41.268Z,50.75
2023-05-10T23:47:08.005Z,50.70
2023-05-10T23:49:34.877Z,50.86
2023-05-10T23:52:01.749Z,50.36
2023-05-10T23:54:28.980Z,50.95
2023-05-10T23:56:55.706Z,50.56
2023-05-10T23:59:22.567Z,50.71
